Terminal Aerodrome Forecast
Issued by NWS

Home | Current Version | Previous Version | Text Only | Print | Product List | Glossary On
Versions: 1 2 3 4 5 6 7 8 9 10 11 12 13 14 15 16 17 18 19 20 21 22 23 24 25 26 27 28 29 30 31 32 33 34
000
FTUS42 KMLB 181120
TAFISM
TAF
KISM 181120Z 1812/1912 19006KT P6SM SCT010 BKN015
      TEMPO 1812/1813 BKN009
     FM181400 19007KT P6SM SCT020 SCT070 BKN250
     FM181700 23010KT P6SM VCTS SCT035CB BKN060
      TEMPO 1817/1819 3SM TSRA BKN025CB
     FM182300 23006KT P6SM SCT050 BKN200=

USA.gov is the U.S. government's official web portal to all federal, state and local government web resources and services.